X  Sluiten METAR luchtvaart weer gegevens      EHGG Eelde Airport
Temperatuur
23°C Temperatuur
14°C Dauwpunt
57% Vochtigheid



Wind
14 KM/U
9 MPH
4 M/S
8 KTS



210°
ZZW
Huidig weer

Wat bewolking Wat bewolking
Luchtdruk 1010.92 (hPa) - 29.85 (inHg)
Zicht 6.2 (mijl) - 10 (km)
Vliegveld
Vliegveld code EHGG

Locatie : Eelde Airport
Afstand: 50 (km)

Metar:
EHGG 251225Z AUTO 21008KT 170V240 9999 FEW038 23/14 Q1011 NOSIG

Tijd: 25-06-2022 14:25 CEST